EGNX Airport Information

Runway Information
Runway 09 Length 9491 ft width 151 ft
Elevation 306 ft Threshold 590 ft Heading 88
Runway 27 Length 9491 ft Width 151 ft
Elevation 282 ft Threshold 426 ft Heading 268
Airport Frequencies
Type APP Name APP Frequency 134.175 MHZ
Type ATIS Name ATIS Frequency 128.225 MHZ
Type Fire servi Name Frequency 121.6 MHZ
Type GND Name GND Frequency 121.9 MHZ
Type TWR Name TWR Frequency 124 MHZ
Airport Navaids
Airport Weather Information & NOTAM
ADDS - METARS form results

(1819 UTC 24 May 2022)
Data provider http://aviationweather.gov/metar/data/
 
METAR text: EGNX 241750Z 28008KT 250V320 9999 SCT045 14/06 Q1007
Conditions at: EGNX (EAST MIDLANDS , GB) observed 1750 UTC 24 May 2022
Temperature: 14.0°C (57°F)
Dewpoint: 6.0°C (43°F) [RH = 58%]
Pressure (altimeter): 29.73 inches Hg (1007.0 mb)
Winds: from the W (280 degrees) at 9 MPH (8 knots; 4.1 m/s)
Visibility: 6 or more miles (10+ km)
Ceiling: at least 12,000 feet AGL
Clouds: scattered clouds at 4500 feet AGL
Weather: no significant weather observed at this time

METAR text: EGNX 241720Z 30011KT 9999 FEW037CB 14/06 Q1007
Conditions at: EGNX (EAST MIDLANDS , GB) observed 1720 UTC 24 May 2022
Temperature: 14.0°C (57°F)
Dewpoint: 6.0°C (43°F) [RH = 58%]
Pressure (altimeter): 29.73 inches Hg (1007.0 mb)
Winds: from the WNW (300 degrees) at 13 MPH (11 knots; 5.7 m/s)
Visibility: 6 or more miles (10+ km)
Ceiling: at least 12,000 feet AGL
Clouds: few clouds at 3700 feet AGL
Weather: no significant weather observed at this time

Forecast for: EGNX (EAST MIDLANDS , GB)
Text: TAF EGNX 241658Z 2418/2518 26010KT 9999 SCT040
Forecast period: 1800 UTC 24 May 2022 to 1800 UTC 25 May 2022
Forecast type: FROM: standard forecast or significant change
Winds: from the W (260 degrees) at 12 MPH (10 knots; 5.1 m/s)
Visibility: 6 or more miles (10+ km)
Ceiling: at least 12,000 feet AGL
Clouds: scattered clouds at 4000 feet AGL
Weather: no significant weather forecast for this period
Text: TEMPO 2506/2512 26015G25KT 2000 +RA BKN006
Forecast period: 0600 to 1200 UTC 25 May 2022
Forecast type: TEMPORARY: The following changes expected for less than half the time period
Winds: from the W (260 degrees) at 17 MPH (15 knots; 7.7 m/s)
gusting to 29 MPH (25 knots; 12.9 m/s)
Visibility: 1.24 miles (2.00 km)
Ceiling: 600 feet AGL
Clouds: broken clouds at 600 feet AGL
Weather: +RA  (heavy rain)
Text: PROB30
Forecast period: 1200 to 1800 UTC 25 May 2022
Forecast type: TEMPORARY: The following changes expected for less than half the time period
Winds: from the W (270 degrees) at 21 MPH (18 knots; 9.3 m/s)
gusting to 32 MPH (28 knots; 14.4 m/s)
Visibility: 2.49 miles (4.01 km)
Ceiling: 1200 feet AGL
Clouds: broken clouds at 1200 feet AGL
Weather: SHRA  (rain showers)